sensor_id;sensor_type;location;lat;lon;timestamp;pressure;altitude;pressure_sealevel;temperature;humidity
85304;BME280;75708;47.930;13.782;2024-03-17T00:00:22;96778.47;;;6.98;88.89
85304;BME280;75708;47.930;13.782;2024-03-17T00:02:48;96769.31;;;6.94;88.51
85304;BME280;75708;47.930;13.782;2024-03-17T00:05:14;96772.34;;;6.97;88.48
85304;BME280;75708;47.930;13.782;2024-03-17T00:07:40;96783.56;;;6.99;88.25
85304;BME280;75708;47.930;13.782;2024-03-17T00:10:06;96770.13;;;6.94;87.97
85304;BME280;75708;47.930;13.782;2024-03-17T00:12:36;96778.06;;;7.01;88.08
85304;BME280;75708;47.930;13.782;2024-03-17T00:15:02;96770.72;;;7.03;86.68
85304;BME280;75708;47.930;13.782;2024-03-17T00:17:28;96782.53;;;7.07;86.89
85304;BME280;75708;47.930;13.782;2024-03-17T00:19:54;96780.66;;;7.21;84.76
85304;BME280;75708;47.930;13.782;2024-03-17T00:22:19;96778.41;;;7.17;84.18
85304;BME280;75708;47.930;13.782;2024-03-17T00:24:45;96790.41;;;7.33;83.49
85304;BME280;75708;47.930;13.782;2024-03-17T00:27:11;96779.41;;;7.30;81.48
85304;BME280;75708;47.930;13.782;2024-03-17T00:29:40;96783.03;;;7.35;83.60
85304;BME280;75708;47.930;13.782;2024-03-17T00:32:06;96775.34;;;7.21;83.36
85304;BME280;75708;47.930;13.782;2024-03-17T00:34:32;96788.81;;;7.26;83.96
85304;BME280;75708;47.930;13.782;2024-03-17T00:36:57;96775.53;;;7.26;82.65
85304;BME280;75708;47.930;13.782;2024-03-17T00:39:24;96770.66;;;7.16;84.35
85304;BME280;75708;47.930;13.782;2024-03-17T00:41:51;96783.94;;;7.16;83.91
85304;BME280;75708;47.930;13.782;2024-03-17T00:44:16;96780.88;;;7.19;82.85
85304;BME280;75708;47.930;13.782;2024-03-17T00:46:42;96773.72;;;7.20;84.04
85304;BME280;75708;47.930;13.782;2024-03-17T00:49:09;96774.94;;;7.17;83.69
85304;BME280;75708;47.930;13.782;2024-03-17T00:51:35;96771.25;;;7.18;82.31
85304;BME280;75708;47.930;13.782;2024-03-17T00:54:01;96782.91;;;7.17;81.86
85304;BME280;75708;47.930;13.782;2024-03-17T00:56:27;96787.41;;;7.16;84.22
85304;BME280;75708;47.930;13.782;2024-03-17T00:58:53;96778.25;;;7.06;83.87
85304;BME280;75708;47.930;13.782;2024-03-17T01:01:18;96768.88;;;6.97;83.46
85304;BME280;75708;47.930;13.782;2024-03-17T01:03:47;96771.94;;;7.00;83.39
85304;BME280;75708;47.930;13.782;2024-03-17T01:06:13;96806.63;;;7.18;83.54
85304;BME280;75708;47.930;13.782;2024-03-17T01:08:39;96777.59;;;7.17;80.62
85304;BME280;75708;47.930;13.782;2024-03-17T01:11:04;96778.41;;;7.17;80.97
85304;BME280;75708;47.930;13.782;2024-03-17T01:13:34;96764.31;;;7.17;80.73
85304;BME280;75708;47.930;13.782;2024-03-17T01:16:00;96767.59;;;7.12;80.40
85304;BME280;75708;47.930;13.782;2024-03-17T01:18:26;96780.59;;;7.34;78.42
85304;BME280;75708;47.930;13.782;2024-03-17T01:20:51;96766.13;;;7.30;79.07
85304;BME280;75708;47.930;13.782;2024-03-17T01:23:17;96778.75;;;7.34;79.42
85304;BME280;75708;47.930;13.782;2024-03-17T01:25:42;96773.69;;;7.26;79.46
85304;BME280;75708;47.930;13.782;2024-03-17T01:28:08;96780.81;;;7.32;81.55
85304;BME280;75708;47.930;13.782;2024-03-17T01:30:33;96772.94;;;7.06;83.39
85304;BME280;75708;47.930;13.782;2024-03-17T01:33:00;96791.72;;;7.11;83.47
85304;BME280;75708;47.930;13.782;2024-03-17T01:35:26;96781.91;;;7.05;83.69
85304;BME280;75708;47.930;13.782;2024-03-17T01:37:52;96786.63;;;7.09;82.66
85304;BME280;75708;47.930;13.782;2024-03-17T01:40:17;96789.00;;;7.24;80.93
85304;BME280;75708;47.930;13.782;2024-03-17T01:42:43;96762.75;;;7.03;82.39
85304;BME280;75708;47.930;13.782;2024-03-17T01:47:43;96781.53;;;7.01;83.73
85304;BME280;75708;47.930;13.782;2024-03-17T01:50:09;96785.81;;;7.09;82.67
85304;BME280;75708;47.930;13.782;2024-03-17T01:52:37;96786.44;;;6.98;82.26
85304;BME280;75708;47.930;13.782;2024-03-17T01:55:04;96783.19;;;6.89;83.21
85304;BME280;75708;47.930;13.782;2024-03-17T01:57:29;96779.91;;;7.00;82.69
85304;BME280;75708;47.930;13.782;2024-03-17T01:59:56;96776.81;;;7.10;80.61
85304;BME280;75708;47.930;13.782;2024-03-17T02:02:22;96772.34;;;6.97;82.11
85304;BME280;75708;47.930;13.782;2024-03-17T02:04:48;96772.78;;;6.94;83.06
85304;BME280;75708;47.930;13.782;2024-03-17T02:07:14;96779.69;;;6.95;82.89
85304;BME280;75708;47.930;13.782;2024-03-17T02:09:40;96773.19;;;6.91;82.67
85304;BME280;75708;47.930;13.782;2024-03-17T02:12:07;96787.91;;;6.94;81.26
85304;BME280;75708;47.930;13.782;2024-03-17T02:14:33;96783.41;;;6.88;84.04
85304;BME280;75708;47.930;13.782;2024-03-17T02:16:59;96774.19;;;6.90;81.55
85304;BME280;75708;47.930;13.782;2024-03-17T02:19:24;96784.66;;;6.85;83.38
85304;BME280;75708;47.930;13.782;2024-03-17T02:21:50;96744.66;;;6.67;83.39
85304;BME280;75708;47.930;13.782;2024-03-17T02:24:16;96780.56;;;6.83;84.04
85304;BME280;75708;47.930;13.782;2024-03-17T02:26:41;96778.09;;;6.81;82.79
85304;BME280;75708;47.930;13.782;2024-03-17T02:29:07;96752.81;;;6.65;83.14
85304;BME280;75708;47.930;13.782;2024-03-17T02:31:32;96760.78;;;6.65;84.66
85304;BME280;75708;47.930;13.782;2024-03-17T02:33:58;96763.22;;;6.60;85.17
85304;BME280;75708;47.930;13.782;2024-03-17T02:36:23;96757.72;;;6.62;84.90
85304;BME280;75708;47.930;13.782;2024-03-17T02:38:49;96773.66;;;6.68;83.50
85304;BME280;75708;47.930;13.782;2024-03-17T02:41:33;96763.44;;;6.65;84.37
85304;BME280;75708;47.930;13.782;2024-03-17T02:43:58;96763.22;;;6.60;84.93
85304;BME280;75708;47.930;13.782;2024-03-17T02:46:24;96755.88;;;6.62;84.10
85304;BME280;75708;47.930;13.782;2024-03-17T02:48:52;96755.06;;;6.62;84.32
85304;BME280;75708;47.930;13.782;2024-03-17T02:51:20;96760.97;;;6.70;83.39
85304;BME280;75708;47.930;13.782;2024-03-17T02:53:47;96766.06;;;6.72;82.60
85304;BME280;75708;47.930;13.782;2024-03-17T02:56:14;96759.53;;;6.74;84.14
85304;BME280;75708;47.930;13.782;2024-03-17T02:58:43;96760.75;;;6.72;83.53
85304;BME280;75708;47.930;13.782;2024-03-17T03:01:09;96765.69;;;6.68;84.47
85304;BME280;75708;47.930;13.782;2024-03-17T03:03:36;96763.03;;;6.68;83.33
85304;BME280;75708;47.930;13.782;2024-03-17T03:06:02;96756.06;;;6.74;82.50
85304;BME280;75708;47.930;13.782;2024-03-17T03:08:38;96754.63;;;6.71;83.13
85304;BME280;75708;47.930;13.782;2024-03-17T03:11:10;96758.72;;;6.74;83.10
85304;BME280;75708;47.930;13.782;2024-03-17T03:13:39;96751.16;;;6.71;83.06
85304;BME280;75708;47.930;13.782;2024-03-17T03:16:13;96746.69;;;6.65;83.91
85304;BME280;75708;47.930;13.782;2024-03-17T03:18:43;96750.56;;;6.62;84.18
85304;BME280;75708;47.930;13.782;2024-03-17T03:21:09;96747.91;;;6.62;84.28
85304;BME280;75708;47.930;13.782;2024-03-17T03:23:36;96744.84;;;6.65;83.28
85304;BME280;75708;47.930;13.782;2024-03-17T03:26:03;96745.88;;;6.64;83.73
85304;BME280;75708;47.930;13.782;2024-03-17T03:28:31;96749.56;;;6.63;83.60
85304;BME280;75708;47.930;13.782;2024-03-17T03:30:57;96757.72;;;6.68;83.24
85304;BME280;75708;47.930;13.782;2024-03-17T03:33:23;96750.16;;;6.65;82.97
85304;BME280;75708;47.930;13.782;2024-03-17T03:35:48;96742.00;;;6.67;82.72
85304;BME280;75708;47.930;13.782;2024-03-17T03:38:16;96758.94;;;6.72;82.93
85304;BME280;75708;47.930;13.782;2024-03-17T03:40:42;96732.19;;;6.61;83.36
85304;BME280;75708;47.930;13.782;2024-03-17T03:43:09;96740.53;;;6.71;82.65
85304;BME280;75708;47.930;13.782;2024-03-17T03:45:35;96737.50;;;6.74;81.93
85304;BME280;75708;47.930;13.782;2024-03-17T03:48:01;96744.44;;;6.68;82.50
85304;BME280;75708;47.930;13.782;2024-03-17T03:50:28;96750.19;;;6.59;82.99
85304;BME280;75708;47.930;13.782;2024-03-17T03:52:54;96728.13;;;6.58;82.75
85304;BME280;75708;47.930;13.782;2024-03-17T03:55:19;96733.44;;;6.52;84.12
85304;BME280;75708;47.930;13.782;2024-03-17T03:57:45;96733.06;;;6.41;83.49
85304;BME280;75708;47.930;13.782;2024-03-17T04:00:13;96739.97;;;6.42;83.89
85304;BME280;75708;47.930;13.782;2024-03-17T04:02:42;96737.13;;;6.37;84.19
85304;BME280;75708;47.930;13.782;2024-03-17T04:05:09;96722.88;;;6.19;85.09
85304;BME280;75708;47.930;13.782;2024-03-17T04:07:36;96732.66;;;6.25;84.65
85304;BME280;75708;47.930;13.782;2024-03-17T04:10:03;96723.88;;;6.31;84.29
85304;BME280;75708;47.930;13.782;2024-03-17T04:12:29;96734.66;;;6.42;83.52
85304;BME280;75708;47.930;13.782;2024-03-17T04:14:57;96727.75;;;6.41;83.94
85304;BME280;75708;47.930;13.782;2024-03-17T04:17:22;96728.19;;;6.32;84.12
85304;BME280;75708;47.930;13.782;2024-03-17T04:19:49;96735.91;;;6.33;83.76
85304;BME280;75708;47.930;13.782;2024-03-17T04:22:15;96698.59;;;6.15;82.54
85304;BME280;75708;47.930;13.782;2024-03-17T04:24:43;96724.91;;;6.30;83.20
85304;BME280;75708;47.930;13.782;2024-03-17T04:27:08;96731.41;;;6.34;82.09
85304;BME280;75708;47.930;13.782;2024-03-17T04:29:34;96738.19;;;6.23;81.55
85304;BME280;75708;47.930;13.782;2024-03-17T04:32:00;96719.59;;;6.30;80.04
85304;BME280;75708;47.930;13.782;2024-03-17T04:34:27;96734.28;;;6.46;78.26
85304;BME280;75708;47.930;13.782;2024-03-17T04:36:53;96730.13;;;6.76;75.69
85304;BME280;75708;47.930;13.782;2024-03-17T04:39:21;96741.78;;;6.68;76.04
85304;BME280;75708;47.930;13.782;2024-03-17T04:41:49;96741.72;;;6.88;75.15
85304;BME280;75708;47.930;13.782;2024-03-17T04:44:16;96730.28;;;6.88;73.47
85304;BME280;75708;47.930;13.782;2024-03-17T04:46:41;96749.28;;;6.91;73.22
85304;BME280;75708;47.930;13.782;2024-03-17T04:49:07;96734.75;;;7.00;72.80
85304;BME280;75708;47.930;13.782;2024-03-17T04:51:33;96708.41;;;6.99;72.08
85304;BME280;75708;47.930;13.782;2024-03-17T04:53:59;96731.31;;;6.93;72.99
85304;BME280;75708;47.930;13.782;2024-03-17T04:56:25;96741.19;;;7.24;69.41
85304;BME280;75708;47.930;13.782;2024-03-17T04:58:50;96733.47;;;7.16;69.15
85304;BME280;75708;47.930;13.782;2024-03-17T05:01:16;96732.84;;;7.21;68.40
85304;BME280;75708;47.930;13.782;2024-03-17T05:03:42;96737.00;;;7.03;72.17
85304;BME280;75708;47.930;13.782;2024-03-17T05:06:07;96741.56;;;6.76;76.68
85304;BME280;75708;47.930;13.782;2024-03-17T05:08:33;96730.19;;;6.50;80.87
85304;BME280;75708;47.930;13.782;2024-03-17T05:11:01;96743.25;;;6.58;81.56
85304;BME280;75708;47.930;13.782;2024-03-17T05:13:30;96751.63;;;6.35;83.82
85304;BME280;75708;47.930;13.782;2024-03-17T05:15:56;96750.03;;;6.14;85.52
85304;BME280;75708;47.930;13.782;2024-03-17T05:18:23;96752.84;;;6.46;84.85
85304;BME280;75708;47.930;13.782;2024-03-17T05:20:58;96733.47;;;6.38;84.20
85304;BME280;75708;47.930;13.782;2024-03-17T05:23:26;96742.25;;;6.39;84.80
85304;BME280;75708;47.930;13.782;2024-03-17T05:25:52;96751.25;;;6.31;84.98
85304;BME280;75708;47.930;13.782;2024-03-17T05:28:17;96747.56;;;6.39;85.78
85304;BME280;75708;47.930;13.782;2024-03-17T05:30:43;96732.66;;;6.25;86.11
85304;BME280;75708;47.930;13.782;2024-03-17T05:33:09;96747.53;;;6.26;86.31
85304;BME280;75708;47.930;13.782;2024-03-17T05:35:35;96721.63;;;6.34;85.69
85304;BME280;75708;47.930;13.782;2024-03-17T05:38:00;96715.53;;;6.21;85.98
85304;BME280;75708;47.930;13.782;2024-03-17T05:40:26;96739.00;;;6.24;86.24
85304;BME280;75708;47.930;13.782;2024-03-17T05:42:51;96747.34;;;6.21;87.90
85304;BME280;75708;47.930;13.782;2024-03-17T05:45:17;96752.25;;;6.17;87.74
85304;BME280;75708;47.930;13.782;2024-03-17T05:47:42;96745.31;;;6.10;87.57
85304;BME280;75708;47.930;13.782;2024-03-17T05:50:09;96758.19;;;6.06;87.91
85304;BME280;75708;47.930;13.782;2024-03-17T05:52:34;96768.78;;;6.13;88.09
85304;BME280;75708;47.930;13.782;2024-03-17T05:55:00;96756.13;;;6.01;88.40
85304;BME280;75708;47.930;13.782;2024-03-17T05:57:25;96757.56;;;6.04;88.03
85304;BME280;75708;47.930;13.782;2024-03-17T05:59:51;96756.97;;;6.15;87.89
85304;BME280;75708;47.930;13.782;2024-03-17T06:02:17;96755.94;;;6.29;86.95
85304;BME280;75708;47.930;13.782;2024-03-17T06:04:44;96752.03;;;6.45;86.95
85304;BME280;75708;47.930;13.782;2024-03-17T06:07:09;96749.94;;;6.73;85.42
85304;BME280;75708;47.930;13.782;2024-03-17T06:09:35;96751.53;;;6.88;84.89
85304;BME280;75708;47.930;13.782;2024-03-17T06:12:00;96750.88;;;6.99;85.04
85304;BME280;75708;47.930;13.782;2024-03-17T06:14:26;96742.84;;;7.18;82.96
85304;BME280;75708;47.930;13.782;2024-03-17T06:16:51;96753.03;;;7.28;80.43
85304;BME280;75708;47.930;13.782;2024-03-17T06:19:17;96749.22;;;7.04;83.41
85304;BME280;75708;47.930;13.782;2024-03-17T06:21:42;96734.53;;;7.02;79.83
85304;BME280;75708;47.930;13.782;2024-03-17T06:24:08;96751.44;;;7.21;80.72
85304;BME280;75708;47.930;13.782;2024-03-17T06:26:33;96758.97;;;7.24;81.66
85304;BME280;75708;47.930;13.782;2024-03-17T06:29:01;96758.22;;;7.10;82.29
85304;BME280;75708;47.930;13.782;2024-03-17T06:31:26;96764.47;;;7.22;81.89
85304;BME280;75708;47.930;13.782;2024-03-17T06:33:52;96749.81;;;7.13;82.09
85304;BME280;75708;47.930;13.782;2024-03-17T06:36:17;96765.75;;;7.20;81.58
85304;BME280;75708;47.930;13.782;2024-03-17T06:38:43;96772.03;;;7.25;80.05
85304;BME280;75708;47.930;13.782;2024-03-17T06:41:12;96744.94;;;7.10;81.33
85304;BME280;75708;47.930;13.782;2024-03-17T06:43:40;96769.34;;;7.38;80.97
85304;BME280;75708;47.930;13.782;2024-03-17T06:46:07;96766.50;;;7.71;79.00
85304;BME280;75708;47.930;13.782;2024-03-17T06:48:33;96771.53;;;7.86;78.46
85304;BME280;75708;47.930;13.782;2024-03-17T06:50:59;96770.44;;;7.93;77.53
85304;BME280;75708;47.930;13.782;2024-03-17T06:53:25;96775.00;;;7.86;80.74
85304;BME280;75708;47.930;13.782;2024-03-17T06:55:58;96771.69;;;8.22;79.70
85304;BME280;75708;47.930;13.782;2024-03-17T06:58:26;96777.22;;;8.21;79.07
85304;BME280;75708;47.930;13.782;2024-03-17T07:00:59;96784.31;;;8.02;79.47
85304;BME280;75708;47.930;13.782;2024-03-17T07:03:27;96789.59;;;7.77;80.88
85304;BME280;75708;47.930;13.782;2024-03-17T07:05:55;96787.41;;;7.61;81.93
85304;BME280;75708;47.930;13.782;2024-03-17T07:08:22;96774.78;;;7.88;81.20
85304;BME280;75708;47.930;13.782;2024-03-17T07:11:07;96786.84;;;8.22;80.52
85304;BME280;75708;47.930;13.782;2024-03-17T07:13:34;96787.00;;;8.77;77.13
85304;BME280;75708;47.930;13.782;2024-03-17T07:16:00;96780.97;;;8.88;76.78
85304;BME280;75708;47.930;13.782;2024-03-17T07:18:28;96782.94;;;8.74;77.28
85304;BME280;75708;47.930;13.782;2024-03-17T07:21:01;96785.03;;;9.09;76.99
85304;BME280;75708;47.930;13.782;2024-03-17T07:23:28;96785.25;;;8.71;74.74
85304;BME280;75708;47.930;13.782;2024-03-17T07:26:01;96780.94;;;8.70;75.18
85304;BME280;75708;47.930;13.782;2024-03-17T07:28:27;96794.63;;;8.48;75.01
85304;BME280;75708;47.930;13.782;2024-03-17T07:30:55;96793.88;;;8.41;74.17
85304;BME280;75708;47.930;13.782;2024-03-17T07:33:21;96794.03;;;8.46;73.92
85304;BME280;75708;47.930;13.782;2024-03-17T07:35:51;96798.50;;;8.95;75.09
85304;BME280;75708;47.930;13.782;2024-03-17T07:38:18;96790.28;;;9.15;75.19
85304;BME280;75708;47.930;13.782;2024-03-17T07:41:05;96803.91;;;9.07;74.75
85304;BME280;75708;47.930;13.782;2024-03-17T07:43:32;96788.19;;;8.81;75.88
85304;BME280;75708;47.930;13.782;2024-03-17T07:46:02;96805.78;;;9.25;74.09
85304;BME280;75708;47.930;13.782;2024-03-17T07:48:29;96784.31;;;8.58;76.48
85304;BME280;75708;47.930;13.782;2024-03-17T07:50:59;96797.94;;;8.68;75.29
85304;BME280;75708;47.930;13.782;2024-03-17T07:53:38;96804.06;;;8.94;74.81
85304;BME280;75708;47.930;13.782;2024-03-17T07:56:06;96797.50;;;9.15;73.91
85304;BME280;75708;47.930;13.782;2024-03-17T07:58:33;96800.72;;;9.17;75.43
85304;BME280;75708;47.930;13.782;2024-03-17T08:01:16;96797.31;;;8.91;75.93
85304;BME280;75708;47.930;13.782;2024-03-17T08:03:45;96784.31;;;9.20;74.58
85304;BME280;75708;47.930;13.782;2024-03-17T08:06:11;96786.44;;;8.93;75.11
85304;BME280;75708;47.930;13.782;2024-03-17T08:08:37;96787.63;;;8.79;76.37
85304;BME280;75708;47.930;13.782;2024-03-17T08:11:03;96779.72;;;9.09;74.67
85304;BME280;75708;47.930;13.782;2024-03-17T08:13:32;96778.13;;;9.56;73.48
85304;BME280;75708;47.930;13.782;2024-03-17T08:16:04;96791.88;;;9.41;74.65
85304;BME280;75708;47.930;13.782;2024-03-17T08:18:36;96788.50;;;9.46;73.66
85304;BME280;75708;47.930;13.782;2024-03-17T08:21:02;96795.25;;;9.12;77.02
85304;BME280;75708;47.930;13.782;2024-03-17T08:23:32;96770.44;;;8.75;74.05
85304;BME280;75708;47.930;13.782;2024-03-17T08:25:59;96780.97;;;9.72;70.08
85304;BME280;75708;47.930;13.782;2024-03-17T08:28:26;96770.56;;;9.53;72.33
85304;BME280;75708;47.930;13.782;2024-03-17T08:31:02;96773.06;;;9.96;69.63
85304;BME280;75708;47.930;13.782;2024-03-17T08:33:28;96773.75;;;9.91;71.51
85304;BME280;75708;47.930;13.782;2024-03-17T08:36:02;96760.75;;;9.95;69.19
85304;BME280;75708;47.930;13.782;2024-03-17T08:38:28;96757.53;;;10.04;66.88
85304;BME280;75708;47.930;13.782;2024-03-17T08:40:55;96754.97;;;10.74;65.74
85304;BME280;75708;47.930;13.782;2024-03-17T08:43:22;96757.19;;;10.77;64.43
85304;BME280;75708;47.930;13.782;2024-03-17T08:45:58;96759.91;;;11.17;63.27
85304;BME280;75708;47.930;13.782;2024-03-17T08:48:27;96762.53;;;10.54;65.65
85304;BME280;75708;47.930;13.782;2024-03-17T08:50:54;96749.38;;;10.41;65.94
85304;BME280;75708;47.930;13.782;2024-03-17T08:53:21;96752.78;;;10.60;64.69
85304;BME280;75708;47.930;13.782;2024-03-17T08:55:47;96745.56;;;11.35;63.31
85304;BME280;75708;47.930;13.782;2024-03-17T08:58:13;96744.88;;;12.75;60.86
85304;BME280;75708;47.930;13.782;2024-03-17T09:00:39;96734.97;;;13.36;58.49
85304;BME280;75708;47.930;13.782;2024-03-17T09:03:06;96724.69;;;13.76;57.72
85304;BME280;75708;47.930;13.782;2024-03-17T09:05:35;96726.94;;;14.43;53.56
85304;BME280;75708;47.930;13.782;2024-03-17T09:08:01;96727.66;;;15.07;54.17
85304;BME280;75708;47.930;13.782;2024-03-17T09:10:26;96730.03;;;13.71;56.73
85304;BME280;75708;47.930;13.782;2024-03-17T09:12:52;96726.00;;;15.01;53.28
85304;BME280;75708;47.930;13.782;2024-03-17T09:15:17;96717.34;;;13.67;55.12
85304;BME280;75708;47.930;13.782;2024-03-17T09:17:43;96724.53;;;13.61;54.90
85304;BME280;75708;47.930;13.782;2024-03-17T09:20:12;96724.06;;;12.82;57.67
85304;BME280;75708;47.930;13.782;2024-03-17T09:22:38;96732.78;;;13.81;55.99
85304;BME280;75708;47.930;13.782;2024-03-17T09:25:08;96720.91;;;14.31;53.82
85304;BME280;75708;47.930;13.782;2024-03-17T09:27:34;96703.84;;;14.84;52.57
85304;BME280;75708;47.930;13.782;2024-03-17T09:30:02;96706.22;;;16.76;47.36
85304;BME280;75708;47.930;13.782;2024-03-17T09:32:30;96709.00;;;18.00;46.14
85304;BME280;75708;47.930;13.782;2024-03-17T09:34:56;96700.88;;;20.62;41.20
85304;BME280;75708;47.930;13.782;2024-03-17T09:37:21;96699.31;;;20.05;42.33
85304;BME280;75708;47.930;13.782;2024-03-17T09:39:47;96698.44;;;19.48;40.09
85304;BME280;75708;47.930;13.782;2024-03-17T09:42:19;96674.53;;;18.50;43.03
85304;BME280;75708;47.930;13.782;2024-03-17T09:44:48;96695.16;;;18.07;41.03
85304;BME280;75708;47.930;13.782;2024-03-17T09:47:19;96690.19;;;20.14;38.01
85304;BME280;75708;47.930;13.782;2024-03-17T09:49:47;96696.66;;;18.23;42.96
85304;BME280;75708;47.930;13.782;2024-03-17T09:52:23;96687.38;;;18.97;41.82
85304;BME280;75708;47.930;13.782;2024-03-17T09:54:55;96703.97;;;17.83;42.40
85304;BME280;75708;47.930;13.782;2024-03-17T09:57:23;96698.88;;;16.01;47.05
85304;BME280;75708;47.930;13.782;2024-03-17T09:59:53;96700.53;;;16.63;49.85
85304;BME280;75708;47.930;13.782;2024-03-17T10:02:19;96706.63;;;15.62;51.63
85304;BME280;75708;47.930;13.782;2024-03-17T10:04:45;96688.84;;;18.55;46.02
85304;BME280;75708;47.930;13.782;2024-03-17T10:07:11;96698.25;;;17.90;44.04
85304;BME280;75708;47.930;13.782;2024-03-17T10:09:37;96695.44;;;16.15;45.38
85304;BME280;75708;47.930;13.782;2024-03-17T10:12:03;96696.72;;;16.94;47.05
85304;BME280;75708;47.930;13.782;2024-03-17T10:14:28;96683.66;;;19.35;39.91
85304;BME280;75708;47.930;13.782;2024-03-17T10:16:54;96686.84;;;18.32;42.77
85304;BME280;75708;47.930;13.782;2024-03-17T10:19:26;96688.25;;;17.26;43.67
85304;BME280;75708;47.930;13.782;2024-03-17T10:22:00;96677.16;;;20.16;38.29
85304;BME280;75708;47.930;13.782;2024-03-17T10:24:27;96683.81;;;19.49;38.87
85304;BME280;75708;47.930;13.782;2024-03-17T10:26:58;96686.94;;;17.83;38.79
85304;BME280;75708;47.930;13.782;2024-03-17T10:29:26;96676.38;;;18.83;38.01
85304;BME280;75708;47.930;13.782;2024-03-17T10:32:01;96677.91;;;19.18;36.86
85304;BME280;75708;47.930;13.782;2024-03-17T10:34:28;96659.75;;;18.03;38.35
85304;BME280;75708;47.930;13.782;2024-03-17T10:39:46;96674.69;;;16.26;43.36
85304;BME280;75708;47.930;13.782;2024-03-17T10:42:13;96671.16;;;16.21;44.51
85304;BME280;75708;47.930;13.782;2024-03-17T10:44:43;96665.78;;;16.31;44.56
85304;BME280;75708;47.930;13.782;2024-03-17T10:47:24;96675.19;;;16.64;44.95
85304;BME280;75708;47.930;13.782;2024-03-17T10:49:52;96658.22;;;16.53;44.24
85304;BME280;75708;47.930;13.782;2024-03-17T10:52:19;96666.28;;;16.28;44.27
85304;BME280;75708;47.930;13.782;2024-03-17T10:54:52;96661.06;;;15.45;47.75
85304;BME280;75708;47.930;13.782;2024-03-17T10:57:35;96665.06;;;17.20;43.51
85304;BME280;75708;47.930;13.782;2024-03-17T11:00:06;96637.94;;;18.57;41.58
85304;BME280;75708;47.930;13.782;2024-03-17T11:02:34;96645.22;;;17.50;42.41
85304;BME280;75708;47.930;13.782;2024-03-17T11:05:03;96658.09;;;17.09;44.25
85304;BME280;75708;47.930;13.782;2024-03-17T11:07:30;96640.19;;;16.08;46.06
85304;BME280;75708;47.930;13.782;2024-03-17T11:09:58;96652.69;;;17.09;43.99
85304;BME280;75708;47.930;13.782;2024-03-17T11:12:51;96646.50;;;17.67;41.45
85304;BME280;75708;47.930;13.782;2024-03-17T11:20:39;96629.78;;;20.60;34.63
85304;BME280;75708;47.930;13.782;2024-03-17T11:23:06;96626.25;;;18.33;40.14
85304;BME280;75708;47.930;13.782;2024-03-17T11:28:02;96630.44;;;16.27;42.99
85304;BME280;75708;47.930;13.782;2024-03-17T11:39:09;96600.56;;;19.31;36.89
85304;BME280;75708;47.930;13.782;2024-03-17T11:41:51;96615.28;;;16.77;46.34
85304;BME280;75708;47.930;13.782;2024-03-17T11:46:50;96610.28;;;16.09;46.84
85304;BME280;75708;47.930;13.782;2024-03-17T11:49:20;96614.28;;;16.32;47.68
85304;BME280;75708;47.930;13.782;2024-03-17T11:51:48;96593.75;;;18.67;42.06
85304;BME280;75708;47.930;13.782;2024-03-17T11:54:27;96584.31;;;18.35;44.58
85304;BME280;75708;47.930;13.782;2024-03-17T11:57:40;96593.00;;;18.32;43.58
85304;BME280;75708;47.930;13.782;2024-03-17T11:59:45;96583.59;;;19.01;41.73
85304;BME280;75708;47.930;13.782;2024-03-17T12:04:43;96567.13;;;22.41;34.07
85304;BME280;75708;47.930;13.782;2024-03-17T12:07:14;96553.41;;;23.94;30.12
85304;BME280;75708;47.930;13.782;2024-03-17T12:09:43;96556.78;;;21.13;35.45
85304;BME280;75708;47.930;13.782;2024-03-17T12:12:18;96553.28;;;20.72;36.56
85304;BME280;75708;47.930;13.782;2024-03-17T12:14:45;96558.31;;;19.11;38.89
85304;BME280;75708;47.930;13.782;2024-03-17T12:17:12;96553.66;;;20.38;38.49
85304;BME280;75708;47.930;13.782;2024-03-17T12:19:44;96550.91;;;18.21;41.91
85304;BME280;75708;47.930;13.782;2024-03-17T12:22:16;96535.47;;;18.74;41.22
85304;BME280;75708;47.930;13.782;2024-03-17T12:24:43;96540.56;;;17.71;43.37
85304;BME280;75708;47.930;13.782;2024-03-17T12:27:19;96534.81;;;15.89;47.77
85304;BME280;75708;47.930;13.782;2024-03-17T12:29:46;96536.50;;;16.75;44.44
85304;BME280;75708;47.930;13.782;2024-03-17T12:32:20;96526.44;;;16.96;45.57
85304;BME280;75708;47.930;13.782;2024-03-17T12:34:55;96537.78;;;15.77;48.04
85304;BME280;75708;47.930;13.782;2024-03-17T12:37:22;96536.69;;;16.09;48.26
85304;BME280;75708;47.930;13.782;2024-03-17T12:39:49;96540.47;;;15.93;48.76
85304;BME280;75708;47.930;13.782;2024-03-17T12:42:16;96537.72;;;16.23;47.31
85304;BME280;75708;47.930;13.782;2024-03-17T12:44:49;96532.91;;;16.05;49.29
85304;BME280;75708;47.930;13.782;2024-03-17T12:47:17;96534.53;;;15.50;49.22
85304;BME280;75708;47.930;13.782;2024-03-17T12:49:47;96544.25;;;15.92;49.54
85304;BME280;75708;47.930;13.782;2024-03-17T12:52:30;96542.59;;;15.35;50.48
85304;BME280;75708;47.930;13.782;2024-03-17T12:57:43;96532.28;;;14.86;51.03
85304;BME280;75708;47.930;13.782;2024-03-17T13:00:27;96505.38;;;14.29;51.71
85304;BME280;75708;47.930;13.782;2024-03-17T13:03:06;96501.06;;;14.85;49.73
85304;BME280;75708;47.930;13.782;2024-03-17T13:05:36;96501.03;;;14.80;48.57
85304;BME280;75708;47.930;13.782;2024-03-17T13:08:02;96489.28;;;15.32;47.81
85304;BME280;75708;47.930;13.782;2024-03-17T13:10:29;96486.44;;;14.56;49.15
85304;BME280;75708;47.930;13.782;2024-03-17T13:13:02;96491.75;;;15.54;47.72
85304;BME280;75708;47.930;13.782;2024-03-17T13:15:29;96486.84;;;15.10;48.87
85304;BME280;75708;47.930;13.782;2024-03-17T13:17:56;96487.41;;;15.27;50.08
85304;BME280;75708;47.930;13.782;2024-03-17T13:20:22;96472.56;;;14.94;49.93
85304;BME280;75708;47.930;13.782;2024-03-17T13:22:48;96478.94;;;14.58;51.10
85304;BME280;75708;47.930;13.782;2024-03-17T13:25:19;96475.53;;;15.23;49.46
85304;BME280;75708;47.930;13.782;2024-03-17T13:28:02;96466.41;;;15.75;48.93
85304;BME280;75708;47.930;13.782;2024-03-17T13:30:29;96459.00;;;16.31;47.58